Etusivu
METAR-TAF:

METAR-TAF

Lentoasemat :

Brønnøysund, Norja

Leveyspiiri: 65-28N, Pituuspiiri: 012-13E, korkeus merenpinnasta: 0 m

Tämänhetkinen sää

Tämä raportti tehtiin 25 minuuttia sitten, kello 23.50 UTC
Tuuli 4 kn idästä/koillisesta
Lämpötila 7°C
Kosteus 93%
Ilmanpaine 1014 hPa
Näkyvyys 10 km tai enemmän

METAR: ENBN 282350Z AUTO 07004KT 9999NDV NCD 07/06 Q1014

Aika: 02:15 (00:15 UTC)

Sääennuste

Tämä raportti tehtiin 10 tuntia ja 15 minuuttia sitten, kello 14.00 UTC
Ennuste voimassa 28. päivästä klo 15 UTC - 28. päivään klo 19 UTC
Tuuli 8 kn lännestä/luoteesta
Näkyvyys 10 km tai enemmän
Muutamia pilviä 1500 ft:n korkeudessa
Hajanaisia pilviä 3500 ft:n korkeudessa
heikkoja vesikuuroja

TAF: ENBN 281400Z 2815/2819 29008KT 9999 -SHRA FEW015 SCT035

Säähavainnot ja -ennusteet yli 4000 lentoasemalta (METAR- ja TAF-raportit).

Käytössä olevat sääasemat on merkitty karttaan keltaisilla ja punaisilla pisteillä.

Aseta hiiri pisteen päälle nähdäksesi sääaseman nimen.

Klikkaa sitten nähdäksesi säähavainnot ja -ennusteet.

Kartan vaihtaminen: klikkaa mustalla rastilla varustettuja vihreitä pisteitä, niin voit zoomata sisään; viivalla varustettua vihreää pistettä, niin voit zoomata ulos tai vihreitä nuolia, niin pääset viereisille kartoille.


METAR-TAF: